Time;durP1;ratioP1;P1;durP2;ratioP2;P2;SDS_P1;SDS_P2;PMS_P1;PMS_P2;Temp;Humidity;BMP_temperature;BMP_pressure;BME280_temperature;BME280_humidity;BME280_pressure;Samples;Min_cycle;Max_cycle;Signal;HPM_P1;HPM_P2
2023/07/28 00:01:11;;;;;;;3.40;1.90;;;;;;;;;;5059840;28;20022;-91
2023/07/28 00:03:36;;;;;;;3.88;1.92;;;;;;;;;;5044376;28;20029;-90
2023/07/28 00:06:01;;;;;;;4.07;2.00;;;;;;;;;;5033860;28;20032;-90
2023/07/28 00:08:36;;;;;;;3.33;2.00;;;;;;;;;;5031062;28;20120;-91
2023/07/28 00:11:03;;;;;;;5.40;1.80;;;;;;;;;;5031566;28;20029;-91
2023/07/28 00:13:28;;;;;;;3.22;1.52;;;;;;;;;;5031188;28;20420;-91
2023/07/28 00:15:54;;;;;;;3.05;1.70;;;;;;;;;;5034338;28;20132;-91
2023/07/28 00:18:21;;;;;;;7.32;2.00;;;;;;;;;;5067479;28;20021;-91
2023/07/28 00:20:48;;;;;;;4.00;2.05;;;;;;;;;;5051971;28;20040;-90
2023/07/28 00:23:14;;;;;;;3.00;1.70;;;;;;;;;;5039023;28;20044;-91
2023/07/28 00:25:39;;;;;;;3.40;1.88;;;;;;;;;;5053568;28;20077;-91
2023/07/28 00:28:06;;;;;;;5.93;2.03;;;;;;;;;;5051687;28;20021;-91
2023/07/28 00:30:34;;;;;;;7.88;1.85;;;;;;;;;;5067282;28;20028;-91
2023/07/28 00:32:59;;;;;;;3.75;1.70;;;;;;;;;;5048577;28;20013;-91
2023/07/28 00:35:25;;;;;;;4.07;1.85;;;;;;;;;;5040997;28;20021;-91
2023/07/28 00:37:50;;;;;;;3.80;2.05;;;;;;;;;;5062979;28;20017;-91
2023/07/28 00:40:15;;;;;;;6.85;1.52;;;;;;;;;;5063399;28;20437;-91
2023/07/28 00:42:41;;;;;;;4.80;2.03;;;;;;;;;;5030782;28;20055;-90
2023/07/28 00:45:09;;;;;;;3.33;1.83;;;;;;;;;;5031592;28;20040;-91
2023/07/28 00:47:37;;;;;;;4.10;2.30;;;;;;;;;;5032546;28;20045;-91
2023/07/28 00:50:03;;;;;;;5.63;2.05;;;;;;;;;;5048539;28;20037;-91
2023/07/28 00:52:29;;;;;;;4.45;2.38;;;;;;;;;;5045099;28;20020;-90
2023/07/28 00:54:55;;;;;;;3.65;2.22;;;;;;;;;;5059463;28;20063;-91
2023/07/28 00:57:20;;;;;;;7.53;2.25;;;;;;;;;;5042914;28;20351;-91
2023/07/28 00:59:46;;;;;;;4.25;2.50;;;;;;;;;;5068251;28;20021;-91
2023/07/28 01:02:14;;;;;;;4.82;2.10;;;;;;;;;;5068753;28;20480;-91
2023/07/28 01:04:40;;;;;;;6.55;2.45;;;;;;;;;;5040111;28;20025;-91
2023/07/28 01:07:35;;;;;;;5.78;2.05;;;;;;;;;;5051922;28;20028;-91
2023/07/28 01:10:08;;;;;;;3.78;2.00;;;;;;;;;;5041376;28;20037;-91
2023/07/28 01:12:36;;;;;;;4.47;2.33;;;;;;;;;;5053249;28;20025;-91
2023/07/28 01:15:02;;;;;;;5.00;2.22;;;;;;;;;;5047125;28;20044;-91
2023/07/28 01:17:27;;;;;;;3.55;2.25;;;;;;;;;;5053011;28;20106;-91
2023/07/28 01:19:53;;;;;;;4.15;2.20;;;;;;;;;;5034289;28;20503;-91
2023/07/28 01:22:36;;;;;;;7.93;2.58;;;;;;;;;;5033946;28;20030;-91
2023/07/28 01:25:18;;;;;;;7.00;2.38;;;;;;;;;;5048896;28;20451;-91
2023/07/28 01:27:47;;;;;;;4.00;2.08;;;;;;;;;;5070578;28;20020;-91
2023/07/28 01:30:12;;;;;;;4.25;2.35;;;;;;;;;;5061627;28;20059;-91
2023/07/28 01:32:37;;;;;;;4.32;2.45;;;;;;;;;;5048257;28;20016;-91
2023/07/28 01:35:05;;;;;;;4.40;2.13;;;;;;;;;;5041973;28;20025;-91
2023/07/28 01:37:30;;;;;;;5.50;2.17;;;;;;;;;;5067096;28;20021;-92
2023/07/28 01:39:57;;;;;;;4.85;2.45;;;;;;;;;;5055356;28;20171;-91
2023/07/28 01:42:23;;;;;;;5.38;2.42;;;;;;;;;;5034285;28;20439;-91
2023/07/28 01:44:48;;;;;;;3.80;2.22;;;;;;;;;;5033931;28;20045;-90
2023/07/28 01:47:13;;;;;;;4.03;1.92;;;;;;;;;;5029096;28;20013;-91
2023/07/28 01:49:44;;;;;;;4.00;2.17;;;;;;;;;;5035398;28;20017;-91
2023/07/28 01:52:09;;;;;;;3.58;1.80;;;;;;;;;;5018750;28;20013;-91
2023/07/28 01:54:35;;;;;;;3.45;1.70;;;;;;;;;;5044043;28;20017;-91
2023/07/28 01:57:00;;;;;;;3.85;1.88;;;;;;;;;;5052004;28;20029;-91
2023/07/28 01:59:28;;;;;;;6.95;1.90;;;;;;;;;;5033704;28;20021;-91
2023/07/28 02:01:58;;;;;;;3.85;1.70;;;;;;;;;;5034496;28;20821;-91
2023/07/28 02:04:23;;;;;;;2.88;1.63;;;;;;;;;;5036166;28;20116;-91
2023/07/28 02:06:51;;;;;;;3.85;1.67;;;;;;;;;;5034836;28;20037;-92
2023/07/28 02:09:17;;;;;;;2.13;1.52;;;;;;;;;;5024518;28;20036;-92
2023/07/28 02:11:42;;;;;;;2.90;1.50;;;;;;;;;;5063028;28;20025;-91
2023/07/28 02:14:08;;;;;;;1.88;1.35;;;;;;;;;;5052988;28;20024;-91
2023/07/28 02:16:33;;;;;;;3.70;2.08;;;;;;;;;;5057623;28;20013;-92
2023/07/28 02:18:58;;;;;;;2.78;1.70;;;;;;;;;;5047609;28;20131;-92
2023/07/28 02:21:24;;;;;;;2.85;1.80;;;;;;;;;;5030651;28;20018;-91
2023/07/28 02:23:49;;;;;;;3.75;1.38;;;;;;;;;;5034332;28;20028;-91
2023/07/28 02:26:20;;;;;;;3.35;1.90;;;;;;;;;;5052680;28;20024;-92
2023/07/28 02:28:45;;;;;;;3.85;1.90;;;;;;;;;;5048193;28;20014;-91
2023/07/28 02:31:11;;;;;;;4.78;2.50;;;;;;;;;;5051706;28;20020;-92
2023/07/28 02:33:36;;;;;;;3.28;1.77;;;;;;;;;;5060603;28;20021;-92
2023/07/28 02:36:02;;;;;;;5.18;2.47;;;;;;;;;;5048549;28;20032;-92
2023/07/28 02:38:27;;;;;;;4.95;2.08;;;;;;;;;;5056522;28;20022;-92
2023/07/28 02:40:56;;;;;;;3.58;2.20;;;;;;;;;;5032697;28;20504;-91
2023/07/28 02:43:21;;;;;;;4.40;2.35;;;;;;;;;;5018061;28;20044;-91
2023/07/28 02:45:56;;;;;;;4.05;1.95;;;;;;;;;;5033724;28;20025;-91
2023/07/28 02:48:22;;;;;;;5.00;2.60;;;;;;;;;;5033331;28;20124;-92
2023/07/28 02:50:48;;;;;;;7.50;2.78;;;;;;;;;;5033191;28;20024;-92
2023/07/28 02:53:13;;;;;;;5.20;2.38;;;;;;;;;;5032335;28;20060;-91
2023/07/28 02:55:42;;;;;;;8.25;2.45;;;;;;;;;;5033055;28;20024;-92
2023/07/28 02:58:11;;;;;;;5.78;2.47;;;;;;;;;;5032859;28;20409;-92
2023/07/28 03:00:40;;;;;;;7.03;2.55;;;;;;;;;;5032846;28;20030;-92
2023/07/28 03:03:05;;;;;;;5.45;3.10;;;;;;;;;;5032216;28;20105;-91
2023/07/28 03:05:31;;;;;;;6.78;2.55;;;;;;;;;;5032597;28;20499;-91
2023/07/28 03:07:56;;;;;;;13.38;3.08;;;;;;;;;;5030202;28;20099;-91
2023/07/28 03:10:24;;;;;;;6.05;2.88;;;;;;;;;;5032484;28;20024;-91
2023/07/28 03:12:49;;;;;;;5.35;2.78;;;;;;;;;;5031851;28;20494;-91
2023/07/28 03:15:15;;;;;;;6.03;2.92;;;;;;;;;;5030035;28;20026;-91
2023/07/28 03:17:40;;;;;;;6.75;2.90;;;;;;;;;;5031639;28;20072;-91
2023/07/28 03:20:06;;;;;;;5.85;2.88;;;;;;;;;;5032213;28;20029;-92
2023/07/28 03:22:31;;;;;;;5.80;3.03;;;;;;;;;;5032026;28;20075;-92
2023/07/28 03:24:56;;;;;;;4.82;2.90;;;;;;;;;;5032277;28;20021;-91
2023/07/28 03:27:22;;;;;;;5.85;3.13;;;;;;;;;;5034225;28;20013;-92
2023/07/28 03:29:47;;;;;;;6.18;2.75;;;;;;;;;;5034506;28;20025;-92
2023/07/28 03:32:13;;;;;;;6.40;3.53;;;;;;;;;;5033480;28;20017;-91
2023/07/28 03:34:38;;;;;;;5.93;2.88;;;;;;;;;;5032455;28;20099;-91
2023/07/28 03:37:03;;;;;;;7.00;2.70;;;;;;;;;;5034154;28;20014;-91
2023/07/28 03:39:32;;;;;;;4.32;2.55;;;;;;;;;;5034869;28;20032;-91
2023/07/28 03:41:57;;;;;;;6.10;3.00;;;;;;;;;;5035398;28;20445;-92
2023/07/28 03:44:23;;;;;;;7.35;3.45;;;;;;;;;;5035063;28;20017;-91
2023/07/28 03:46:51;;;;;;;8.23;3.00;;;;;;;;;;5037172;28;20116;-91
2023/07/28 03:49:16;;;;;;;5.82;3.00;;;;;;;;;;5033792;28;20010;-91
2023/07/28 03:51:46;;;;;;;7.30;2.95;;;;;;;;;;5039760;28;20534;-91
2023/07/28 03:54:14;;;;;;;10.43;3.47;;;;;;;;;;5039753;28;20105;-92
2023/07/28 03:56:40;;;;;;;7.25;2.50;;;;;;;;;;5038372;28;20037;-91
2023/07/28 03:59:07;;;;;;;7.75;2.97;;;;;;;;;;5032060;28;20108;-91
2023/07/28 04:01:33;;;;;;;7.47;2.85;;;;;;;;;;5035314;28;20018;-91
2023/07/28 04:04:03;;;;;;;8.18;2.80;;;;;;;;;;5033684;28;20030;-91
2023/07/28 04:06:42;;;;;;;9.93;2.90;;;;;;;;;;5031922;28;20032;-91
2023/07/28 04:09:08;;;;;;;9.23;2.92;;;;;;;;;;5032044;28;20084;-92
2023/07/28 04:11:33;;;;;;;5.18;2.35;;;;;;;;;;5031603;28;20013;-93
2023/07/28 04:13:59;;;;;;;10.10;3.42;;;;;;;;;;5033043;28;20017;-91
2023/07/28 04:16:24;;;;;;;7.85;3.20;;;;;;;;;;5032095;28;20025;-91
2023/07/28 04:18:49;;;;;;;5.53;2.72;;;;;;;;;;5031318;28;20083;-92
2023/07/28 04:21:15;;;;;;;8.30;3.83;;;;;;;;;;5031112;28;20091;-92
2023/07/28 04:23:40;;;;;;;8.38;3.30;;;;;;;;;;5030574;28;20037;-92
2023/07/28 04:26:06;;;;;;;8.30;3.20;;;;;;;;;;5030605;28;20083;-91
2023/07/28 04:28:31;;;;;;;7.18;2.88;;;;;;;;;;5030759;28;20071;-92
2023/07/28 04:30:56;;;;;;;9.48;3.88;;;;;;;;;;5030951;28;20028;-91
2023/07/28 04:33:22;;;;;;;13.30;4.03;;;;;;;;;;5031021;28;20026;-92
2023/07/28 04:35:47;;;;;;;9.02;3.63;;;;;;;;;;5028344;28;20052;-91
2023/07/28 04:38:18;;;;;;;10.57;3.63;;;;;;;;;;5031767;28;20017;-92
2023/07/28 04:40:43;;;;;;;8.05;3.33;;;;;;;;;;5031044;28;20025;-91
2023/07/28 04:43:08;;;;;;;16.75;4.28;;;;;;;;;;5030594;28;20021;-91
2023/07/28 04:45:33;;;;;;;10.52;3.80;;;;;;;;;;5030641;28;20033;-91
2023/07/28 04:47:59;;;;;;;14.18;3.95;;;;;;;;;;5029872;28;20025;-92
2023/07/28 04:50:24;;;;;;;10.85;3.80;;;;;;;;;;5030756;28;20124;-90
2023/07/28 04:52:49;;;;;;;8.02;3.58;;;;;;;;;;5033135;28;20026;-91
2023/07/28 04:55:15;;;;;;;11.95;5.10;;;;;;;;;;5030558;28;20040;-90
2023/07/28 04:57:43;;;;;;;12.18;4.30;;;;;;;;;;5030381;28;20418;-91
2023/07/28 05:00:09;;;;;;;10.65;4.07;;;;;;;;;;5031373;28;20021;-91
2023/07/28 05:02:37;;;;;;;13.65;4.40;;;;;;;;;;5035161;28;20033;-91
2023/07/28 05:05:12;;;;;;;11.82;4.20;;;;;;;;;;5033254;28;20081;-89
2023/07/28 05:07:37;;;;;;;17.02;4.30;;;;;;;;;;5034218;28;20022;-90
2023/07/28 05:10:02;;;;;;;10.73;4.40;;;;;;;;;;5037529;28;20107;-91
2023/07/28 05:12:28;;;;;;;14.30;4.68;;;;;;;;;;5037076;28;20048;-91
2023/07/28 05:14:54;;;;;;;11.68;3.95;;;;;;;;;;5032715;28;20376;-91
2023/07/28 05:17:19;;;;;;;12.32;4.72;;;;;;;;;;5034208;28;20029;-91
2023/07/28 05:19:45;;;;;;;13.90;4.45;;;;;;;;;;5035365;28;20416;-92
2023/07/28 05:22:10;;;;;;;14.73;4.80;;;;;;;;;;5032269;28;20035;-91
2023/07/28 05:24:35;;;;;;;11.75;4.43;;;;;;;;;;5032612;28;20025;-91
2023/07/28 05:27:04;;;;;;;11.75;4.15;;;;;;;;;;5031187;28;20061;-92
2023/07/28 05:29:29;;;;;;;16.75;4.78;;;;;;;;;;5032980;28;20539;-91
2023/07/28 05:31:54;;;;;;;11.60;4.07;;;;;;;;;;5031931;28;20102;-91
2023/07/28 05:34:23;;;;;;;12.85;4.30;;;;;;;;;;5031517;28;20025;-91
2023/07/28 05:36:48;;;;;;;8.98;3.70;;;;;;;;;;5031564;28;20028;-92
2023/07/28 05:39:14;;;;;;;12.77;3.78;;;;;;;;;;5031638;28;20022;-91
2023/07/28 05:41:39;;;;;;;8.65;3.25;;;;;;;;;;5031425;28;20021;-92
2023/07/28 05:44:04;;;;;;;10.48;4.20;;;;;;;;;;5032082;28;20026;-91
2023/07/28 05:46:29;;;;;;;9.82;3.65;;;;;;;;;;5033093;28;20021;-91
2023/07/28 05:48:56;;;;;;;12.00;3.90;;;;;;;;;;5035115;28;20108;-91
2023/07/28 05:51:24;;;;;;;10.55;4.28;;;;;;;;;;5035202;28;20014;-91
2023/07/28 05:53:52;;;;;;;9.27;3.42;;;;;;;;;;5034895;28;20045;-90
2023/07/28 05:56:18;;;;;;;9.63;3.22;;;;;;;;;;5035196;28;20448;-91
2023/07/28 05:58:47;;;;;;;9.85;3.03;;;;;;;;;;5036128;28;20044;-91
2023/07/28 06:01:12;;;;;;;8.57;3.50;;;;;;;;;;5034874;28;20009;-91
2023/07/28 06:03:38;;;;;;;10.10;3.75;;;;;;;;;;5034859;28;20094;-90
2023/07/28 06:06:03;;;;;;;11.50;3.85;;;;;;;;;;5034243;28;20052;-91
2023/07/28 06:08:28;;;;;;;7.88;3.88;;;;;;;;;;5049279;28;20163;-88
2023/07/28 06:10:54;;;;;;;9.85;3.90;;;;;;;;;;5034670;28;20076;-91
2023/07/28 06:13:20;;;;;;;9.63;3.60;;;;;;;;;;5033982;28;20531;-90
2023/07/28 06:15:45;;;;;;;7.22;2.85;;;;;;;;;;5035169;28;20020;-91
2023/07/28 06:18:11;;;;;;;11.23;3.42;;;;;;;;;;5037770;28;20025;-90
2023/07/28 06:20:37;;;;;;;6.90;2.95;;;;;;;;;;5035667;28;20039;-91
2023/07/28 06:23:02;;;;;;;10.30;3.80;;;;;;;;;;5034709;28;20116;-91
2023/07/28 06:25:27;;;;;;;6.70;2.47;;;;;;;;;;5036478;28;20112;-90
2023/07/28 06:27:53;;;;;;;8.60;2.97;;;;;;;;;;5037594;28;20480;-92
2023/07/28 06:30:18;;;;;;;7.53;2.80;;;;;;;;;;5038224;28;20361;-93
2023/07/28 06:32:44;;;;;;;5.30;2.50;;;;;;;;;;5037334;28;20847;-92
2023/07/28 06:35:09;;;;;;;6.00;2.63;;;;;;;;;;5038710;28;20026;-89
2023/07/28 06:37:38;;;;;;;9.02;2.60;;;;;;;;;;5038127;28;20021;-88
2023/07/28 06:40:09;;;;;;;6.15;1.88;;;;;;;;;;5033394;28;20041;-87
2023/07/28 06:42:34;;;;;;;5.25;1.98;;;;;;;;;;5044788;28;20044;-88
2023/07/28 06:45:02;;;;;;;8.02;1.80;;;;;;;;;;5033493;28;20021;-88
2023/07/28 06:47:27;;;;;;;5.70;2.17;;;;;;;;;;5034365;28;20020;-87
2023/07/28 06:49:56;;;;;;;4.38;1.88;;;;;;;;;;5034391;28;20064;-92
2023/07/28 06:52:21;;;;;;;4.10;1.38;;;;;;;;;;5036340;28;20423;-90
2023/07/28 06:54:49;;;;;;;4.43;1.38;;;;;;;;;;5033876;28;20033;-92
2023/07/28 06:57:17;;;;;;;3.83;1.50;;;;;;;;;;5033061;28;20021;-92
2023/07/28 06:59:43;;;;;;;1.85;1.20;;;;;;;;;;5035077;28;20442;-92
2023/07/28 07:02:09;;;;;;;4.95;0.93;;;;;;;;;;5032618;28;20029;-92
2023/07/28 07:04:34;;;;;;;1.30;0.88;;;;;;;;;;5032403;28;20076;-93
2023/07/28 07:07:00;;;;;;;1.92;0.80;;;;;;;;;;5033483;28;20029;-93
2023/07/28 07:09:25;;;;;;;2.10;0.98;;;;;;;;;;5033305;28;20085;-91
2023/07/28 07:11:50;;;;;;;1.33;0.80;;;;;;;;;;5033455;28;20025;-93
2023/07/28 07:14:18;;;;;;;3.83;0.88;;;;;;;;;;5034687;28;20017;-93
2023/07/28 07:16:44;;;;;;;0.88;0.68;;;;;;;;;;5033532;28;20097;-93
2023/07/28 07:19:09;;;;;;;0.80;0.60;;;;;;;;;;5031305;28;20031;-93
2023/07/28 07:21:35;;;;;;;1.00;0.60;;;;;;;;;;5032992;28;20021;-93
2023/07/28 07:24:00;;;;;;;1.38;0.70;;;;;;;;;;5033386;28;20033;-93
2023/07/28 07:26:25;;;;;;;0.55;0.40;;;;;;;;;;5032679;28;20018;-93
2023/07/28 07:28:50;;;;;;;3.13;0.50;;;;;;;;;;5033982;28;20018;-92
2023/07/28 07:31:16;;;;;;;0.40;0.30;;;;;;;;;;5032526;28;20100;-92
2023/07/28 07:33:44;;;;;;;2.38;0.30;;;;;;;;;;5033300;28;20025;-93
2023/07/28 07:36:13;;;;;;;1.65;0.30;;;;;;;;;;5033274;28;20017;-93
2023/07/28 07:38:39;;;;;;;0.25;0.20;;;;;;;;;;5033120;28;20383;-91
2023/07/28 07:41:07;;;;;;;0.40;0.40;;;;;;;;;;5032148;28;20207;-93
2023/07/28 07:43:33;;;;;;;1.00;0.40;;;;;;;;;;5035374;28;20021;-93
2023/07/28 07:45:58;;;;;;;0.82;0.40;;;;;;;;;;5033727;28;20013;-93
2023/07/28 07:48:24;;;;;;;1.02;0.57;;;;;;;;;;5033451;28;20108;-93
2023/07/28 07:50:49;;;;;;;0.40;0.35;;;;;;;;;;5033888;28;20026;-92
2023/07/28 07:53:15;;;;;;;0.35;0.32;;;;;;;;;;5031475;28;20047;-93
2023/07/28 07:55:41;;;;;;;0.75;0.38;;;;;;;;;;5035760;28;20101;-91
2023/07/28 07:58:07;;;;;;;0.70;0.50;;;;;;;;;;5034525;28;20088;-92
2023/07/28 08:00:32;;;;;;;0.30;0.30;;;;;;;;;;5036078;28;20084;-91
2023/07/28 08:02:57;;;;;;;1.98;0.40;;;;;;;;;;5035861;28;20025;-91
2023/07/28 08:05:23;;;;;;;0.77;0.50;;;;;;;;;;5032179;28;20100;-91
2023/07/28 08:07:50;;;;;;;0.50;0.50;;;;;;;;;;5030601;28;20025;-91
2023/07/28 08:10:15;;;;;;;1.65;0.50;;;;;;;;;;5028661;28;20057;-91
2023/07/28 08:12:41;;;;;;;0.45;0.35;;;;;;;;;;5033903;28;20032;-91
2023/07/28 08:15:07;;;;;;;0.95;0.30;;;;;;;;;;5040808;28;20021;-92
2023/07/28 08:17:32;;;;;;;0.95;0.50;;;;;;;;;;5031771;28;20379;-93
2023/07/28 08:19:58;;;;;;;0.22;0.20;;;;;;;;;;5038692;28;20053;-89
2023/07/28 08:22:25;;;;;;;0.45;0.28;;;;;;;;;;5051275;28;20041;-89
2023/07/28 08:24:50;;;;;;;0.40;0.40;;;;;;;;;;5030717;28;20022;-89
2023/07/28 08:27:15;;;;;;;0.80;0.50;;;;;;;;;;5030613;28;20120;-88
2023/07/28 08:29:41;;;;;;;1.10;0.50;;;;;;;;;;5045751;28;20024;-88
2023/07/28 08:32:06;;;;;;;0.70;0.50;;;;;;;;;;5030536;28;20029;-89
2023/07/28 08:34:32;;;;;;;1.08;0.55;;;;;;;;;;5030023;28;20022;-88
2023/07/28 08:36:57;;;;;;;1.95;0.43;;;;;;;;;;5029970;28;20493;-89
2023/07/28 08:39:22;;;;;;;3.10;0.57;;;;;;;;;;5028749;28;20087;-89
2023/07/28 08:41:56;;;;;;;0.60;0.52;;;;;;;;;;5030453;28;20025;-89
2023/07/28 08:44:22;;;;;;;0.55;0.47;;;;;;;;;;5029531;28;20022;-89
2023/07/28 08:46:47;;;;;;;0.50;0.40;;;;;;;;;;5030435;28;20430;-89
2023/07/28 08:49:13;;;;;;;0.60;0.35;;;;;;;;;;5028865;28;20124;-89
2023/07/28 08:51:41;;;;;;;0.40;0.40;;;;;;;;;;5029787;28;20021;-88
2023/07/28 08:54:07;;;;;;;0.30;0.28;;;;;;;;;;5027888;28;20018;-89
2023/07/28 08:56:32;;;;;;;0.73;0.30;;;;;;;;;;5029949;28;20078;-89
2023/07/28 08:58:59;;;;;;;0.30;0.22;;;;;;;;;;5028618;28;20108;-89
2023/07/28 09:01:27;;;;;;;3.33;0.38;;;;;;;;;;5029731;28;20030;-90
2023/07/28 09:03:52;;;;;;;0.60;0.40;;;;;;;;;;5030526;28;20037;-89
2023/07/28 09:06:19;;;;;;;0.55;0.40;;;;;;;;;;5029717;28;20013;-89
2023/07/28 09:08:44;;;;;;;0.55;0.32;;;;;;;;;;5029906;28;20420;-89
2023/07/28 09:11:13;;;;;;;0.43;0.25;;;;;;;;;;5029531;28;20021;-89
2023/07/28 09:13:41;;;;;;;0.82;0.40;;;;;;;;;;5029636;28;20022;-88
2023/07/28 09:16:36;;;;;;;0.70;0.50;;;;;;;;;;5029873;28;20024;-89
2023/07/28 09:19:06;;;;;;;0.50;0.38;;;;;;;;;;5025336;28;20048;-89
2023/07/28 09:21:32;;;;;;;3.38;0.50;;;;;;;;;;5031676;28;20448;-89
2023/07/28 09:24:04;;;;;;;0.77;0.40;;;;;;;;;;5037798;28;20041;-89
2023/07/28 09:26:49;;;;;;;0.70;0.45;;;;;;;;;;5038181;28;20403;-86
2023/07/28 09:29:19;;;;;;;2.38;0.70;;;;;;;;;;5039792;28;20392;-86
2023/07/28 09:31:48;;;;;;;0.40;0.38;;;;;;;;;;5038619;28;20026;-86
2023/07/28 09:34:23;;;;;;;0.77;0.50;;;;;;;;;;5038565;28;20108;-86
2023/07/28 09:36:48;;;;;;;1.67;0.70;;;;;;;;;;5039155;28;20017;-86
2023/07/28 09:39:14;;;;;;;1.83;0.60;;;;;;;;;;5043403;28;20033;-91
2023/07/28 09:41:40;;;;;;;0.60;0.45;;;;;;;;;;5029843;28;20025;-92
2023/07/28 09:44:06;;;;;;;0.60;0.40;;;;;;;;;;5038351;28;20091;-90
2023/07/28 09:46:35;;;;;;;0.50;0.40;;;;;;;;;;5028009;28;20025;-90
2023/07/28 09:49:05;;;;;;;0.50;0.40;;;;;;;;;;5049303;28;20408;-89
2023/07/28 09:51:31;;;;;;;0.63;0.43;;;;;;;;;;5036079;28;20010;-90
2023/07/28 09:54:11;;;;;;;0.98;0.35;;;;;;;;;;5034929;28;20018;-90
2023/07/28 09:56:39;;;;;;;1.30;0.30;;;;;;;;;;5035574;28;20060;-89
2023/07/28 09:59:10;;;;;;;0.45;0.40;;;;;;;;;;5034931;28;20021;-90
2023/07/28 10:01:36;;;;;;;1.25;0.40;;;;;;;;;;5034759;28;20116;-90
2023/07/28 10:04:02;;;;;;;0.52;0.30;;;;;;;;;;5034666;28;21903;-89
2023/07/28 10:06:28;;;;;;;0.85;0.50;;;;;;;;;;5034753;28;20491;-90
2023/07/28 10:08:53;;;;;;;0.38;0.22;;;;;;;;;;5034935;28;20413;-90
2023/07/28 10:11:22;;;;;;;0.70;0.40;;;;;;;;;;5034740;28;20425;-89
2023/07/28 10:13:47;;;;;;;0.60;0.40;;;;;;;;;;5034634;28;20026;-91
2023/07/28 10:16:15;;;;;;;0.68;0.40;;;;;;;;;;5034405;28;20499;-90
2023/07/28 10:18:40;;;;;;;0.73;0.50;;;;;;;;;;5034662;28;20112;-91
2023/07/28 10:21:07;;;;;;;1.02;0.40;;;;;;;;;;5034570;28;20124;-92
2023/07/28 10:23:45;;;;;;;0.35;0.28;;;;;;;;;;5034566;28;20013;-91
2023/07/28 10:26:10;;;;;;;0.45;0.22;;;;;;;;;;5034561;28;20432;-90
2023/07/28 10:28:41;;;;;;;0.55;0.40;;;;;;;;;;5035678;28;20022;-90
2023/07/28 10:31:08;;;;;;;0.85;0.45;;;;;;;;;;5034552;28;20017;-90
2023/07/28 10:33:43;;;;;;;1.05;0.50;;;;;;;;;;5034230;28;20013;-90
2023/07/28 10:36:14;;;;;;;4.25;0.63;;;;;;;;;;5034411;28;20052;-89
2023/07/28 10:38:39;;;;;;;1.05;0.40;;;;;;;;;;5034386;28;20092;-90
2023/07/28 10:41:05;;;;;;;0.60;0.50;;;;;;;;;;5034091;28;20029;-90
2023/07/28 10:43:34;;;;;;;2.05;0.60;;;;;;;;;;5035776;28;20428;-90
2023/07/28 10:46:00;;;;;;;0.88;0.50;;;;;;;;;;5040697;28;20413;-91
2023/07/28 10:48:25;;;;;;;0.90;0.50;;;;;;;;;;5034013;28;20117;-91
2023/07/28 10:50:53;;;;;;;1.08;0.65;;;;;;;;;;5034678;28;20018;-91
2023/07/28 10:53:19;;;;;;;1.42;0.73;;;;;;;;;;5034427;28;20373;-93
2023/07/28 10:55:44;;;;;;;1.33;0.80;;;;;;;;;;5035034;28;20117;-92
2023/07/28 10:58:09;;;;;;;2.42;0.98;;;;;;;;;;5035680;28;20017;-91
2023/07/28 11:00:38;;;;;;;2.13;0.80;;;;;;;;;;5035162;28;20022;-90
2023/07/28 11:03:03;;;;;;;0.77;0.60;;;;;;;;;;5026912;28;20025;-90
2023/07/28 11:05:29;;;;;;;0.70;0.50;;;;;;;;;;5037589;28;20021;-93
2023/07/28 11:07:56;;;;;;;0.50;0.40;;;;;;;;;;5039063;28;20013;-91
2023/07/28 11:10:22;;;;;;;0.73;0.52;;;;;;;;;;5035888;28;20030;-90
2023/07/28 11:12:55;;;;;;;1.02;0.45;;;;;;;;;;5036933;28;20550;-91
2023/07/28 11:15:20;;;;;;;0.52;0.40;;;;;;;;;;5035078;28;20025;-91
2023/07/28 11:17:47;;;;;;;0.60;0.50;;;;;;;;;;5034178;28;20083;-91
2023/07/28 11:20:22;;;;;;;1.02;0.50;;;;;;;;;;5033119;28;20022;-91
2023/07/28 11:22:57;;;;;;;0.75;0.60;;;;;;;;;;5032726;28;20171;-90
2023/07/28 11:25:24;;;;;;;2.05;0.70;;;;;;;;;;5024118;28;20029;-90
2023/07/28 11:27:52;;;;;;;1.67;0.70;;;;;;;;;;5033314;28;20461;-90
2023/07/28 11:30:19;;;;;;;0.60;0.50;;;;;;;;;;5033338;28;20027;-92
2023/07/28 11:32:45;;;;;;;1.15;0.70;;;;;;;;;;5032568;28;20021;-90
2023/07/28 11:35:12;;;;;;;1.70;1.00;;;;;;;;;;5032690;28;20025;-89
2023/07/28 11:37:38;;;;;;;1.80;0.90;;;;;;;;;;5033011;28;20108;-89
2023/07/28 11:40:06;;;;;;;1.10;0.77;;;;;;;;;;5033176;28;20021;-89
2023/07/28 11:42:35;;;;;;;4.10;0.88;;;;;;;;;;5033370;28;20021;-90
2023/07/28 11:45:01;;;;;;;1.55;0.90;;;;;;;;;;5049022;28;20025;-90
2023/07/28 11:47:26;;;;;;;1.83;0.85;;;;;;;;;;5032869;28;20184;-89
2023/07/28 11:49:53;;;;;;;1.45;0.90;;;;;;;;;;5033113;28;20097;-89
2023/07/28 11:52:18;;;;;;;1.02;0.75;;;;;;;;;;5031644;28;20025;-90
2023/07/28 11:54:44;;;;;;;4.55;1.08;;;;;;;;;;5032662;28;20101;-89
2023/07/28 11:57:10;;;;;;;4.15;1.08;;;;;;;;;;5032762;28;20074;-91
2023/07/28 11:59:35;;;;;;;1.33;0.82;;;;;;;;;;5032443;28;20422;-90
2023/07/28 12:02:02;;;;;;;1.50;0.88;;;;;;;;;;5032577;28;20025;-89
2023/07/28 12:04:37;;;;;;;1.95;0.90;;;;;;;;;;5031921;28;20392;-89
2023/07/28 12:07:06;;;;;;;1.77;0.73;;;;;;;;;;5032638;28;20404;-90
2023/07/28 12:09:31;;;;;;;2.80;1.10;;;;;;;;;;5032417;28;20013;-89
2023/07/28 12:12:00;;;;;;;3.60;1.35;;;;;;;;;;5032336;28;20022;-91
2023/07/28 12:14:34;;;;;;;2.78;0.98;;;;;;;;;;5033653;28;20415;-91
2023/07/28 12:17:00;;;;;;;3.40;1.00;;;;;;;;;;5040488;28;20021;-88
2023/07/28 12:19:26;;;;;;;2.35;0.90;;;;;;;;;;5033054;28;20029;-90
2023/07/28 12:21:54;;;;;;;5.43;1.00;;;;;;;;;;5032743;28;20083;-92
2023/07/28 12:24:24;;;;;;;1.08;0.60;;;;;;;;;;5023683;28;20030;-88
2023/07/28 12:26:51;;;;;;;0.80;0.60;;;;;;;;;;5033969;28;20064;-85
2023/07/28 12:29:16;;;;;;;1.73;0.70;;;;;;;;;;5031387;28;20029;-88
2023/07/28 12:31:43;;;;;;;1.13;0.60;;;;;;;;;;5033804;28;20048;-87
2023/07/28 12:34:11;;;;;;;0.75;0.50;;;;;;;;;;5036852;28;20040;-89
2023/07/28 12:36:37;;;;;;;0.63;0.50;;;;;;;;;;5039050;28;20024;-88
2023/07/28 12:39:03;;;;;;;0.63;0.50;;;;;;;;;;5040856;28;20029;-87
2023/07/28 12:41:29;;;;;;;1.75;0.63;;;;;;;;;;5038017;28;20028;-90
2023/07/28 12:43:54;;;;;;;1.00;0.80;;;;;;;;;;5036334;28;20022;-89
2023/07/28 12:46:22;;;;;;;2.95;1.10;;;;;;;;;;5031545;28;20081;-90
2023/07/28 12:48:47;;;;;;;2.38;1.13;;;;;;;;;;5028055;28;20021;-90
2023/07/28 12:51:13;;;;;;;2.72;1.17;;;;;;;;;;5033302;28;20032;-89
2023/07/28 12:53:40;;;;;;;2.47;1.50;;;;;;;;;;5033551;28;20159;-90
2023/07/28 12:56:06;;;;;;;2.45;1.20;;;;;;;;;;5033105;28;20039;-88
2023/07/28 12:58:31;;;;;;;2.53;1.63;;;;;;;;;;5036250;28;20536;-89
2023/07/28 13:01:01;;;;;;;2.78;1.50;;;;;;;;;;5034346;28;20393;-91
2023/07/28 13:03:26;;;;;;;2.90;1.40;;;;;;;;;;5035952;28;20079;-90
2023/07/28 13:05:51;;;;;;;1.92;1.02;;;;;;;;;;5036152;28;20484;-89
2023/07/28 13:08:17;;;;;;;2.03;1.30;;;;;;;;;;5035840;28;20009;-90
2023/07/28 13:10:42;;;;;;;2.50;1.10;;;;;;;;;;5035027;28;20021;-89
2023/07/28 13:13:07;;;;;;;2.38;1.05;;;;;;;;;;5035854;28;20032;-89
2023/07/28 13:15:33;;;;;;;2.65;1.20;;;;;;;;;;5035969;28;20025;-90
2023/07/28 13:17:58;;;;;;;3.03;1.00;;;;;;;;;;5035909;28;20104;-89
2023/07/28 13:20:23;;;;;;;3.15;1.30;;;;;;;;;;5035704;28;20028;-89
2023/07/28 13:22:48;;;;;;;4.80;1.50;;;;;;;;;;5034819;28;20108;-89
2023/07/28 13:25:14;;;;;;;3.40;2.10;;;;;;;;;;5035229;28;20057;-89
2023/07/28 13:27:39;;;;;;;2.08;1.27;;;;;;;;;;5035546;28;20044;-89
2023/07/28 13:30:05;;;;;;;3.55;1.33;;;;;;;;;;5035351;28;20029;-89
2023/07/28 13:32:32;;;;;;;2.85;1.30;;;;;;;;;;5034206;28;20022;-88
2023/07/28 13:34:58;;;;;;;3.25;1.27;;;;;;;;;;5032061;28;20397;-89
2023/07/28 13:37:23;;;;;;;2.13;1.10;;;;;;;;;;5030147;28;20049;-89
2023/07/28 13:39:48;;;;;;;1.83;1.20;;;;;;;;;;5034751;28;20052;-90
2023/07/28 13:42:15;;;;;;;2.90;1.02;;;;;;;;;;5033390;28;20468;-88
2023/07/28 13:44:41;;;;;;;1.70;1.10;;;;;;;;;;5033243;28;20032;-88
2023/07/28 13:47:09;;;;;;;3.45;1.55;;;;;;;;;;5035084;28;20029;-89
2023/07/28 13:49:37;;;;;;;1.90;1.20;;;;;;;;;;5034917;28;20014;-88
2023/07/28 13:52:03;;;;;;;2.67;1.00;;;;;;;;;;5035156;28;20028;-89
2023/07/28 13:54:28;;;;;;;2.42;0.90;;;;;;;;;;5045261;28;20415;-89
2023/07/28 13:56:54;;;;;;;2.38;0.80;;;;;;;;;;5028290;28;20079;-90
2023/07/28 13:59:22;;;;;;;1.65;0.90;;;;;;;;;;5035912;28;20017;-89
2023/07/28 14:01:48;;;;;;;1.27;0.77;;;;;;;;;;5036537;28;20056;-88
2023/07/28 14:04:14;;;;;;;1.52;0.80;;;;;;;;;;5035801;28;20447;-89
2023/07/28 14:06:39;;;;;;;2.08;1.05;;;;;;;;;;5036402;28;20048;-89
2023/07/28 14:09:05;;;;;;;1.83;0.85;;;;;;;;;;5037755;28;20036;-89
2023/07/28 14:11:31;;;;;;;3.58;0.98;;;;;;;;;;5040398;28;20025;-90
2023/07/28 14:13:56;;;;;;;2.30;0.85;;;;;;;;;;5036220;28;20388;-92
2023/07/28 14:16:21;;;;;;;1.60;0.90;;;;;;;;;;5050404;28;20555;-92
2023/07/28 14:18:48;;;;;;;2.05;0.77;;;;;;;;;;5034245;28;20057;-91
2023/07/28 14:21:13;;;;;;;2.42;1.00;;;;;;;;;;5051252;28;20040;-90
2023/07/28 14:23:39;;;;;;;1.67;0.93;;;;;;;;;;5040201;28;20013;-91
2023/07/28 14:26:04;;;;;;;2.67;1.00;;;;;;;;;;5033910;28;20013;-91
2023/07/28 14:28:29;;;;;;;1.50;0.77;;;;;;;;;;5033072;28;20045;-91
2023/07/28 14:30:55;;;;;;;1.40;0.80;;;;;;;;;;5032812;28;20048;-91
2023/07/28 14:33:20;;;;;;;2.60;0.98;;;;;;;;;;5032182;28;20037;-91
2023/07/28 14:35:46;;;;;;;1.88;1.17;;;;;;;;;;5030062;28;20025;-91
2023/07/28 14:38:15;;;;;;;1.98;0.82;;;;;;;;;;5034009;28;20366;-91